sensor_id;sensor_type;location;lat;lon;timestamp;P1;durP1;ratioP1;P2;durP2;ratioP2
29712;SDS011;16623;53.632;10.016;2023-02-28T00:00:17;5.20;;;2.53;;
29712;SDS011;16623;53.632;10.016;2023-02-28T00:02:43;7.57;;;2.47;;
29712;SDS011;16623;53.632;10.016;2023-02-28T00:05:09;7.70;;;2.28;;
29712;SDS011;16623;53.632;10.016;2023-02-28T00:07:37;5.00;;;2.38;;
29712;SDS011;16623;53.632;10.016;2023-02-28T00:10:03;11.55;;;2.90;;
29712;SDS011;16623;53.632;10.016;2023-02-28T00:12:33;9.32;;;2.60;;
29712;SDS011;16623;53.632;10.016;2023-02-28T00:14:59;5.40;;;1.80;;
29712;SDS011;16623;53.632;10.016;2023-02-28T00:17:25;11.82;;;3.03;;
29712;SDS011;16623;53.632;10.016;2023-02-28T00:19:51;8.82;;;2.22;;
29712;SDS011;16623;53.632;10.016;2023-02-28T00:22:17;8.13;;;2.60;;
29712;SDS011;16623;53.632;10.016;2023-02-28T00:24:45;7.20;;;2.65;;
29712;SDS011;16623;53.632;10.016;2023-02-28T00:27:11;7.25;;;2.60;;
29712;SDS011;16623;53.632;10.016;2023-02-28T00:29:36;10.07;;;2.70;;
29712;SDS011;16623;53.632;10.016;2023-02-28T00:32:02;8.02;;;2.55;;
29712;SDS011;16623;53.632;10.016;2023-02-28T00:34:28;5.03;;;2.33;;
29712;SDS011;16623;53.632;10.016;2023-02-28T00:36:54;9.88;;;2.78;;
29712;SDS011;16623;53.632;10.016;2023-02-28T00:39:19;6.22;;;2.17;;
29712;SDS011;16623;53.632;10.016;2023-02-28T00:41:45;8.45;;;3.00;;
29712;SDS011;16623;53.632;10.016;2023-02-28T00:44:11;13.02;;;2.70;;
29712;SDS011;16623;53.632;10.016;2023-02-28T00:46:36;8.18;;;2.55;;
29712;SDS011;16623;53.632;10.016;2023-02-28T00:49:01;4.45;;;2.50;;
29712;SDS011;16623;53.632;10.016;2023-02-28T00:51:27;7.68;;;2.83;;
29712;SDS011;16623;53.632;10.016;2023-02-28T00:53:53;7.05;;;3.10;;
29712;SDS011;16623;53.632;10.016;2023-02-28T00:56:18;4.63;;;2.97;;
29712;SDS011;16623;53.632;10.016;2023-02-28T00:58:44;6.43;;;2.50;;
29712;SDS011;16623;53.632;10.016;2023-02-28T01:01:10;10.80;;;3.08;;
29712;SDS011;16623;53.632;10.016;2023-02-28T01:03:35;7.22;;;2.90;;
29712;SDS011;16623;53.632;10.016;2023-02-28T01:06:01;5.70;;;2.67;;
29712;SDS011;16623;53.632;10.016;2023-02-28T01:08:27;9.65;;;2.88;;
29712;SDS011;16623;53.632;10.016;2023-02-28T01:10:52;14.05;;;3.65;;
29712;SDS011;16623;53.632;10.016;2023-02-28T01:13:19;10.45;;;2.90;;
29712;SDS011;16623;53.632;10.016;2023-02-28T01:15:46;3.42;;;2.40;;
29712;SDS011;16623;53.632;10.016;2023-02-28T01:18:16;7.43;;;2.38;;
29712;SDS011;16623;53.632;10.016;2023-02-28T01:20:42;7.38;;;2.55;;
29712;SDS011;16623;53.632;10.016;2023-02-28T01:23:08;7.82;;;2.75;;
29712;SDS011;16623;53.632;10.016;2023-02-28T01:25:34;5.45;;;2.75;;
29712;SDS011;16623;53.632;10.016;2023-02-28T01:28:01;7.00;;;2.97;;
29712;SDS011;16623;53.632;10.016;2023-02-28T01:30:27;8.38;;;3.50;;
29712;SDS011;16623;53.632;10.016;2023-02-28T01:32:53;6.68;;;3.17;;
29712;SDS011;16623;53.632;10.016;2023-02-28T01:35:18;6.80;;;3.13;;
29712;SDS011;16623;53.632;10.016;2023-02-28T01:37:44;8.07;;;3.00;;
29712;SDS011;16623;53.632;10.016;2023-02-28T01:40:10;5.03;;;2.45;;
29712;SDS011;16623;53.632;10.016;2023-02-28T01:42:36;10.20;;;2.60;;
29712;SDS011;16623;53.632;10.016;2023-02-28T01:45:04;9.52;;;3.25;;
29712;SDS011;16623;53.632;10.016;2023-02-28T01:47:52;11.93;;;3.20;;
29712;SDS011;16623;53.632;10.016;2023-02-28T01:50:21;10.63;;;3.10;;
29712;SDS011;16623;53.632;10.016;2023-02-28T01:52:50;8.52;;;3.65;;
29712;SDS011;16623;53.632;10.016;2023-02-28T01:55:18;14.45;;;3.05;;
29712;SDS011;16623;53.632;10.016;2023-02-28T01:57:49;10.02;;;3.30;;
29712;SDS011;16623;53.632;10.016;2023-02-28T02:00:17;9.10;;;3.33;;
29712;SDS011;16623;53.632;10.016;2023-02-28T02:02:48;7.88;;;4.15;;
29712;SDS011;16623;53.632;10.016;2023-02-28T02:05:19;8.63;;;4.30;;
29712;SDS011;16623;53.632;10.016;2023-02-28T02:07:46;9.63;;;3.30;;
29712;SDS011;16623;53.632;10.016;2023-02-28T02:10:19;8.40;;;4.03;;
29712;SDS011;16623;53.632;10.016;2023-02-28T02:15:21;11.63;;;4.07;;
29712;SDS011;16623;53.632;10.016;2023-02-28T02:17:56;14.25;;;4.00;;
29712;SDS011;16623;53.632;10.016;2023-02-28T02:23:21;11.32;;;4.22;;
29712;SDS011;16623;53.632;10.016;2023-02-28T02:25:56;10.45;;;3.55;;
29712;SDS011;16623;53.632;10.016;2023-02-28T02:31:20;6.22;;;3.38;;
29712;SDS011;16623;53.632;10.016;2023-02-28T02:36:48;6.80;;;3.60;;
29712;SDS011;16623;53.632;10.016;2023-02-28T02:39:27;7.47;;;3.50;;
29712;SDS011;16623;53.632;10.016;2023-02-28T02:42:01;6.13;;;3.42;;
29712;SDS011;16623;53.632;10.016;2023-02-28T02:44:36;8.27;;;3.05;;
29712;SDS011;16623;53.632;10.016;2023-02-28T02:47:19;9.13;;;3.88;;
29712;SDS011;16623;53.632;10.016;2023-02-28T02:49:48;8.05;;;3.05;;
29712;SDS011;16623;53.632;10.016;2023-02-28T02:52:17;9.80;;;3.60;;
29712;SDS011;16623;53.632;10.016;2023-02-28T02:54:46;8.48;;;3.05;;
29712;SDS011;16623;53.632;10.016;2023-02-28T02:57:18;7.90;;;3.47;;
29712;SDS011;16623;53.632;10.016;2023-02-28T02:59:53;10.48;;;3.15;;
29712;SDS011;16623;53.632;10.016;2023-02-28T03:02:21;8.20;;;3.17;;
29712;SDS011;16623;53.632;10.016;2023-02-28T03:04:52;9.63;;;3.30;;
29712;SDS011;16623;53.632;10.016;2023-02-28T03:07:21;10.00;;;3.65;;
29712;SDS011;16623;53.632;10.016;2023-02-28T03:09:53;10.48;;;3.53;;
29712;SDS011;16623;53.632;10.016;2023-02-28T03:12:20;7.32;;;3.78;;
29712;SDS011;16623;53.632;10.016;2023-02-28T03:15:22;12.38;;;4.03;;
29712;SDS011;16623;53.632;10.016;2023-02-28T03:17:55;11.25;;;3.28;;
29712;SDS011;16623;53.632;10.016;2023-02-28T03:20:41;6.50;;;3.47;;
29712;SDS011;16623;53.632;10.016;2023-02-28T03:23:45;7.78;;;3.53;;
29712;SDS011;16623;53.632;10.016;2023-02-28T03:26:19;10.75;;;3.58;;
29712;SDS011;16623;53.632;10.016;2023-02-28T03:34:13;11.18;;;3.45;;
29712;SDS011;16623;53.632;10.016;2023-02-28T03:36:55;9.15;;;3.85;;
29712;SDS011;16623;53.632;10.016;2023-02-28T03:39:43;9.80;;;3.40;;
29712;SDS011;16623;53.632;10.016;2023-02-28T03:42:15;10.77;;;3.45;;
29712;SDS011;16623;53.632;10.016;2023-02-28T03:44:53;9.00;;;3.78;;
29712;SDS011;16623;53.632;10.016;2023-02-28T03:50:38;10.02;;;4.60;;
29712;SDS011;16623;53.632;10.016;2023-02-28T03:52:50;13.48;;;4.40;;
29712;SDS011;16623;53.632;10.016;2023-02-28T03:55:26;8.30;;;4.00;;
29712;SDS011;16623;53.632;10.016;2023-02-28T04:00:34;9.57;;;3.40;;
29712;SDS011;16623;53.632;10.016;2023-02-28T04:03:03;18.33;;;5.47;;
29712;SDS011;16623;53.632;10.016;2023-02-28T04:05:29;8.93;;;4.20;;
29712;SDS011;16623;53.632;10.016;2023-02-28T04:08:05;12.52;;;4.65;;
29712;SDS011;16623;53.632;10.016;2023-02-28T04:10:32;8.35;;;3.85;;
29712;SDS011;16623;53.632;10.016;2023-02-28T04:12:57;8.68;;;4.25;;
29712;SDS011;16623;53.632;10.016;2023-02-28T04:15:23;15.07;;;4.80;;
29712;SDS011;16623;53.632;10.016;2023-02-28T04:17:49;6.47;;;3.85;;
29712;SDS011;16623;53.632;10.016;2023-02-28T04:20:15;10.23;;;3.95;;
29712;SDS011;16623;53.632;10.016;2023-02-28T04:22:41;10.85;;;5.28;;
29712;SDS011;16623;53.632;10.016;2023-02-28T04:25:06;7.18;;;3.85;;
29712;SDS011;16623;53.632;10.016;2023-02-28T04:27:32;9.05;;;4.00;;
29712;SDS011;16623;53.632;10.016;2023-02-28T04:29:58;13.48;;;4.93;;
29712;SDS011;16623;53.632;10.016;2023-02-28T04:32:23;11.18;;;4.10;;
29712;SDS011;16623;53.632;10.016;2023-02-28T04:34:49;13.55;;;4.93;;
29712;SDS011;16623;53.632;10.016;2023-02-28T04:37:14;11.23;;;4.60;;
29712;SDS011;16623;53.632;10.016;2023-02-28T04:39:40;9.13;;;4.72;;
29712;SDS011;16623;53.632;10.016;2023-02-28T04:42:06;10.32;;;3.97;;
29712;SDS011;16623;53.632;10.016;2023-02-28T04:44:32;10.90;;;5.15;;
29712;SDS011;16623;53.632;10.016;2023-02-28T04:46:57;11.35;;;3.90;;
29712;SDS011;16623;53.632;10.016;2023-02-28T04:49:23;11.32;;;4.18;;
29712;SDS011;16623;53.632;10.016;2023-02-28T04:51:49;16.55;;;4.78;;
29712;SDS011;16623;53.632;10.016;2023-02-28T04:54:14;9.13;;;4.10;;
29712;SDS011;16623;53.632;10.016;2023-02-28T04:56:41;10.82;;;4.47;;
29712;SDS011;16623;53.632;10.016;2023-02-28T04:59:06;6.85;;;3.85;;
29712;SDS011;16623;53.632;10.016;2023-02-28T05:01:32;9.13;;;3.58;;
29712;SDS011;16623;53.632;10.016;2023-02-28T05:04:01;7.78;;;4.13;;
29712;SDS011;16623;53.632;10.016;2023-02-28T05:06:29;14.23;;;6.35;;
29712;SDS011;16623;53.632;10.016;2023-02-28T05:08:56;10.70;;;3.67;;
29712;SDS011;16623;53.632;10.016;2023-02-28T05:11:23;14.90;;;4.43;;
29712;SDS011;16623;53.632;10.016;2023-02-28T05:13:51;7.82;;;4.00;;
29712;SDS011;16623;53.632;10.016;2023-02-28T05:16:18;11.88;;;4.97;;
29712;SDS011;16623;53.632;10.016;2023-02-28T05:18:44;12.20;;;4.60;;
29712;SDS011;16623;53.632;10.016;2023-02-28T05:21:21;11.20;;;5.07;;
29712;SDS011;16623;53.632;10.016;2023-02-28T05:23:56;10.65;;;4.30;;
29712;SDS011;16623;53.632;10.016;2023-02-28T05:26:23;10.20;;;5.13;;
29712;SDS011;16623;53.632;10.016;2023-02-28T05:28:49;12.45;;;4.22;;
29712;SDS011;16623;53.632;10.016;2023-02-28T05:31:14;6.97;;;4.18;;
29712;SDS011;16623;53.632;10.016;2023-02-28T05:33:40;7.65;;;4.85;;
29712;SDS011;16623;53.632;10.016;2023-02-28T05:36:06;13.75;;;5.32;;
29712;SDS011;16623;53.632;10.016;2023-02-28T05:38:32;9.75;;;5.13;;
29712;SDS011;16623;53.632;10.016;2023-02-28T05:40:57;11.38;;;4.88;;
29712;SDS011;16623;53.632;10.016;2023-02-28T05:43:23;10.35;;;4.30;;
29712;SDS011;16623;53.632;10.016;2023-02-28T05:45:49;10.60;;;4.90;;
29712;SDS011;16623;53.632;10.016;2023-02-28T05:48:14;8.70;;;4.80;;
29712;SDS011;16623;53.632;10.016;2023-02-28T05:50:40;11.18;;;4.90;;
29712;SDS011;16623;53.632;10.016;2023-02-28T05:53:07;13.68;;;4.97;;
29712;SDS011;16623;53.632;10.016;2023-02-28T05:55:33;7.97;;;4.50;;
29712;SDS011;16623;53.632;10.016;2023-02-28T05:58:00;7.93;;;4.78;;
29712;SDS011;16623;53.632;10.016;2023-02-28T06:00:26;9.45;;;5.18;;
29712;SDS011;16623;53.632;10.016;2023-02-28T06:02:52;13.20;;;4.95;;
29712;SDS011;16623;53.632;10.016;2023-02-28T06:05:21;12.95;;;4.88;;
29712;SDS011;16623;53.632;10.016;2023-02-28T06:07:46;12.88;;;4.70;;
29712;SDS011;16623;53.632;10.016;2023-02-28T06:10:12;8.30;;;4.40;;
29712;SDS011;16623;53.632;10.016;2023-02-28T06:12:38;10.82;;;5.25;;
29712;SDS011;16623;53.632;10.016;2023-02-28T06:15:06;8.75;;;4.45;;
29712;SDS011;16623;53.632;10.016;2023-02-28T06:17:33;10.75;;;4.70;;
29712;SDS011;16623;53.632;10.016;2023-02-28T06:19:58;14.20;;;5.22;;
29712;SDS011;16623;53.632;10.016;2023-02-28T06:22:24;9.65;;;4.90;;
29712;SDS011;16623;53.632;10.016;2023-02-28T06:24:49;10.73;;;5.50;;
29712;SDS011;16623;53.632;10.016;2023-02-28T06:27:15;10.55;;;5.00;;
29712;SDS011;16623;53.632;10.016;2023-02-28T06:29:40;14.80;;;5.68;;
29712;SDS011;16623;53.632;10.016;2023-02-28T06:32:06;12.50;;;4.90;;
29712;SDS011;16623;53.632;10.016;2023-02-28T06:34:31;12.60;;;5.57;;
29712;SDS011;16623;53.632;10.016;2023-02-28T06:36:58;10.32;;;5.50;;
29712;SDS011;16623;53.632;10.016;2023-02-28T06:39:27;9.98;;;5.15;;
29712;SDS011;16623;53.632;10.016;2023-02-28T06:41:54;9.07;;;6.18;;
29712;SDS011;16623;53.632;10.016;2023-02-28T06:44:19;14.95;;;5.97;;
29712;SDS011;16623;53.632;10.016;2023-02-28T06:46:46;17.02;;;5.57;;
29712;SDS011;16623;53.632;10.016;2023-02-28T06:49:12;12.55;;;6.05;;
29712;SDS011;16623;53.632;10.016;2023-02-28T06:51:40;18.02;;;5.47;;
29712;SDS011;16623;53.632;10.016;2023-02-28T06:54:07;16.60;;;6.45;;
29712;SDS011;16623;53.632;10.016;2023-02-28T06:56:36;12.10;;;5.95;;
29712;SDS011;16623;53.632;10.016;2023-02-28T06:59:02;12.02;;;5.93;;
29712;SDS011;16623;53.632;10.016;2023-02-28T07:01:28;12.90;;;6.72;;
29712;SDS011;16623;53.632;10.016;2023-02-28T07:03:54;14.02;;;6.30;;
29712;SDS011;16623;53.632;10.016;2023-02-28T07:06:20;14.05;;;7.28;;
29712;SDS011;16623;53.632;10.016;2023-02-28T07:08:50;14.68;;;6.95;;
29712;SDS011;16623;53.632;10.016;2023-02-28T07:11:17;13.68;;;6.13;;
29712;SDS011;16623;53.632;10.016;2023-02-28T07:13:43;17.55;;;6.90;;
29712;SDS011;16623;53.632;10.016;2023-02-28T07:16:12;17.90;;;6.75;;
29712;SDS011;16623;53.632;10.016;2023-02-28T07:18:38;16.15;;;6.50;;
29712;SDS011;16623;53.632;10.016;2023-02-28T07:21:04;12.35;;;7.22;;
29712;SDS011;16623;53.632;10.016;2023-02-28T07:23:31;12.13;;;6.57;;
29712;SDS011;16623;53.632;10.016;2023-02-28T07:25:57;15.68;;;6.90;;
29712;SDS011;16623;53.632;10.016;2023-02-28T07:28:23;11.00;;;7.25;;
29712;SDS011;16623;53.632;10.016;2023-02-28T07:30:49;17.00;;;6.53;;
29712;SDS011;16623;53.632;10.016;2023-02-28T07:33:14;14.30;;;6.75;;
29712;SDS011;16623;53.632;10.016;2023-02-28T07:35:40;10.85;;;6.40;;
29712;SDS011;16623;53.632;10.016;2023-02-28T07:38:06;15.20;;;7.75;;
29712;SDS011;16623;53.632;10.016;2023-02-28T07:40:35;19.45;;;8.35;;
29712;SDS011;16623;53.632;10.016;2023-02-28T07:43:01;13.02;;;6.05;;
29712;SDS011;16623;53.632;10.016;2023-02-28T07:45:27;18.20;;;6.47;;
29712;SDS011;16623;53.632;10.016;2023-02-28T07:47:53;16.33;;;7.63;;
29712;SDS011;16623;53.632;10.016;2023-02-28T07:50:20;21.58;;;7.78;;
29712;SDS011;16623;53.632;10.016;2023-02-28T07:52:45;18.45;;;7.22;;
29712;SDS011;16623;53.632;10.016;2023-02-28T07:55:11;20.27;;;6.93;;
29712;SDS011;16623;53.632;10.016;2023-02-28T07:57:38;24.55;;;7.82;;
29712;SDS011;16623;53.632;10.016;2023-02-28T08:00:04;18.15;;;7.43;;
29712;SDS011;16623;53.632;10.016;2023-02-28T08:02:32;17.48;;;7.10;;
29712;SDS011;16623;53.632;10.016;2023-02-28T08:04:58;15.75;;;6.32;;
29712;SDS011;16623;53.632;10.016;2023-02-28T08:07:24;17.27;;;6.60;;
29712;SDS011;16623;53.632;10.016;2023-02-28T08:09:50;19.55;;;6.90;;
29712;SDS011;16623;53.632;10.016;2023-02-28T08:12:15;12.55;;;5.72;;
29712;SDS011;16623;53.632;10.016;2023-02-28T08:14:41;27.30;;;8.68;;
29712;SDS011;16623;53.632;10.016;2023-02-28T08:17:06;14.13;;;6.30;;
29712;SDS011;16623;53.632;10.016;2023-02-28T08:19:32;15.05;;;6.13;;
29712;SDS011;16623;53.632;10.016;2023-02-28T08:21:57;14.32;;;5.93;;
29712;SDS011;16623;53.632;10.016;2023-02-28T08:24:23;12.38;;;6.28;;
29712;SDS011;16623;53.632;10.016;2023-02-28T08:26:49;11.32;;;5.20;;
29712;SDS011;16623;53.632;10.016;2023-02-28T08:29:15;14.20;;;7.05;;
29712;SDS011;16623;53.632;10.016;2023-02-28T08:31:41;13.27;;;5.95;;
29712;SDS011;16623;53.632;10.016;2023-02-28T08:34:07;10.38;;;5.82;;
29712;SDS011;16623;53.632;10.016;2023-02-28T08:36:38;16.17;;;6.43;;
29712;SDS011;16623;53.632;10.016;2023-02-28T08:39:04;14.27;;;6.85;;
29712;SDS011;16623;53.632;10.016;2023-02-28T08:41:30;14.88;;;6.18;;
29712;SDS011;16623;53.632;10.016;2023-02-28T08:43:56;17.58;;;6.22;;
29712;SDS011;16623;53.632;10.016;2023-02-28T08:46:22;12.10;;;5.75;;
29712;SDS011;16623;53.632;10.016;2023-02-28T08:48:51;15.13;;;6.93;;
29712;SDS011;16623;53.632;10.016;2023-02-28T08:51:20;13.52;;;6.38;;
29712;SDS011;16623;53.632;10.016;2023-02-28T08:53:53;10.77;;;5.65;;
29712;SDS011;16623;53.632;10.016;2023-02-28T08:56:19;14.35;;;5.53;;
29712;SDS011;16623;53.632;10.016;2023-02-28T08:58:46;11.15;;;4.85;;
29712;SDS011;16623;53.632;10.016;2023-02-28T09:01:16;10.23;;;4.15;;
29712;SDS011;16623;53.632;10.016;2023-02-28T09:03:44;10.38;;;4.25;;
29712;SDS011;16623;53.632;10.016;2023-02-28T09:06:11;10.00;;;4.88;;
29712;SDS011;16623;53.632;10.016;2023-02-28T09:08:37;11.27;;;4.28;;
29712;SDS011;16623;53.632;10.016;2023-02-28T09:11:03;8.65;;;4.18;;
29712;SDS011;16623;53.632;10.016;2023-02-28T09:13:30;16.83;;;4.15;;
29712;SDS011;16623;53.632;10.016;2023-02-28T09:15:57;9.35;;;4.38;;
29712;SDS011;16623;53.632;10.016;2023-02-28T09:18:24;7.60;;;3.30;;
29712;SDS011;16623;53.632;10.016;2023-02-28T09:20:50;9.43;;;3.35;;
29712;SDS011;16623;53.632;10.016;2023-02-28T09:23:16;8.70;;;3.17;;
29712;SDS011;16623;53.632;10.016;2023-02-28T09:25:46;5.57;;;2.47;;
29712;SDS011;16623;53.632;10.016;2023-02-28T09:28:13;6.43;;;2.35;;
29712;SDS011;16623;53.632;10.016;2023-02-28T09:30:42;3.67;;;2.00;;
29712;SDS011;16623;53.632;10.016;2023-02-28T09:33:09;9.70;;;2.80;;
29712;SDS011;16623;53.632;10.016;2023-02-28T09:35:35;4.18;;;2.15;;
29712;SDS011;16623;53.632;10.016;2023-02-28T09:38:02;10.23;;;1.90;;
29712;SDS011;16623;53.632;10.016;2023-02-28T09:40:28;2.75;;;1.75;;
29712;SDS011;16623;53.632;10.016;2023-02-28T09:42:55;3.60;;;1.63;;
29712;SDS011;16623;53.632;10.016;2023-02-28T09:45:30;3.28;;;1.80;;
29712;SDS011;16623;53.632;10.016;2023-02-28T09:48:03;7.15;;;1.80;;
29712;SDS011;16623;53.632;10.016;2023-02-28T09:50:38;4.53;;;2.05;;
29712;SDS011;16623;53.632;10.016;2023-02-28T09:53:29;5.82;;;2.03;;
29712;SDS011;16623;53.632;10.016;2023-02-28T09:55:58;4.45;;;2.10;;
29712;SDS011;16623;53.632;10.016;2023-02-28T09:58:32;3.88;;;1.95;;
29712;SDS011;16623;53.632;10.016;2023-02-28T10:01:37;5.60;;;2.33;;
29712;SDS011;16623;53.632;10.016;2023-02-28T10:07:37;9.38;;;3.22;;
29712;SDS011;16623;53.632;10.016;2023-02-28T10:10:32;2.97;;;2.15;;
29712;SDS011;16623;53.632;10.016;2023-02-28T10:15:50;6.78;;;2.30;;
29712;SDS011;16623;53.632;10.016;2023-02-28T10:18:21;3.60;;;1.98;;
29712;SDS011;16623;53.632;10.016;2023-02-28T10:20:54;5.68;;;2.35;;
29712;SDS011;16623;53.632;10.016;2023-02-28T10:23:23;6.35;;;2.28;;
29712;SDS011;16623;53.632;10.016;2023-02-28T10:26:16;4.05;;;2.00;;
29712;SDS011;16623;53.632;10.016;2023-02-28T10:28:43;7.35;;;3.88;;
29712;SDS011;16623;53.632;10.016;2023-02-28T10:31:19;4.40;;;2.00;;
29712;SDS011;16623;53.632;10.016;2023-02-28T10:33:45;4.22;;;2.50;;
29712;SDS011;16623;53.632;10.016;2023-02-28T10:36:13;5.88;;;2.03;;
29712;SDS011;16623;53.632;10.016;2023-02-28T10:38:42;4.93;;;2.08;;
29712;SDS011;16623;53.632;10.016;2023-02-28T10:41:30;6.00;;;2.70;;
29712;SDS011;16623;53.632;10.016;2023-02-28T10:44:17;5.45;;;1.73;;
29712;SDS011;16623;53.632;10.016;2023-02-28T10:46:48;5.40;;;1.98;;
29712;SDS011;16623;53.632;10.016;2023-02-28T10:49:23;3.15;;;1.88;;
29712;SDS011;16623;53.632;10.016;2023-02-28T10:51:57;3.15;;;1.90;;
29712;SDS011;16623;53.632;10.016;2023-02-28T10:54:34;4.73;;;2.00;;
29712;SDS011;16623;53.632;10.016;2023-02-28T10:57:06;2.88;;;1.70;;
29712;SDS011;16623;53.632;10.016;2023-02-28T10:59:34;3.28;;;1.83;;
29712;SDS011;16623;53.632;10.016;2023-02-28T11:02:01;5.97;;;2.15;;
29712;SDS011;16623;53.632;10.016;2023-02-28T11:09:53;2.80;;;1.80;;
29712;SDS011;16623;53.632;10.016;2023-02-28T11:12:36;5.70;;;2.88;;
29712;SDS011;16623;53.632;10.016;2023-02-28T11:15:05;2.78;;;1.95;;
29712;SDS011;16623;53.632;10.016;2023-02-28T11:18:18;7.90;;;2.35;;
29712;SDS011;16623;53.632;10.016;2023-02-28T11:20:37;4.00;;;2.22;;
29712;SDS011;16623;53.632;10.016;2023-02-28T11:23:05;3.65;;;1.95;;
29712;SDS011;16623;53.632;10.016;2023-02-28T11:25:45;3.45;;;2.15;;
29712;SDS011;16623;53.632;10.016;2023-02-28T11:28:27;3.40;;;1.58;;
29712;SDS011;16623;53.632;10.016;2023-02-28T11:36:17;6.22;;;1.98;;
29712;SDS011;16623;53.632;10.016;2023-02-28T11:38:47;9.43;;;1.80;;
29712;SDS011;16623;53.632;10.016;2023-02-28T11:46:56;3.10;;;2.03;;
29712;SDS011;16623;53.632;10.016;2023-02-28T11:52:13;4.07;;;2.00;;
29712;SDS011;16623;53.632;10.016;2023-02-28T12:01:00;6.90;;;2.25;;
29712;SDS011;16623;53.632;10.016;2023-02-28T12:09:00;4.65;;;1.90;;
29712;SDS011;16623;53.632;10.016;2023-02-28T12:11:42;7.47;;;2.30;;
29712;SDS011;16623;53.632;10.016;2023-02-28T12:14:47;5.25;;;3.05;;
29712;SDS011;16623;53.632;10.016;2023-02-28T12:17:41;7.70;;;2.00;;
29712;SDS011;16623;53.632;10.016;2023-02-28T12:20:25;5.63;;;2.17;;
29712;SDS011;16623;53.632;10.016;2023-02-28T12:23:15;3.40;;;2.17;;
29712;SDS011;16623;53.632;10.016;2023-02-28T12:29:01;3.63;;;2.33;;
29712;SDS011;16623;53.632;10.016;2023-02-28T12:31:43;5.43;;;2.05;;
29712;SDS011;16623;53.632;10.016;2023-02-28T12:34:18;3.78;;;2.20;;
29712;SDS011;16623;53.632;10.016;2023-02-28T12:36:47;6.53;;;2.72;;
29712;SDS011;16623;53.632;10.016;2023-02-28T12:39:19;9.52;;;2.28;;
29712;SDS011;16623;53.632;10.016;2023-02-28T12:44:30;3.58;;;1.80;;
29712;SDS011;16623;53.632;10.016;2023-02-28T12:47:03;6.07;;;2.17;;
29712;SDS011;16623;53.632;10.016;2023-02-28T12:49:34;4.15;;;2.30;;
29712;SDS011;16623;53.632;10.016;2023-02-28T12:52:04;2.83;;;2.28;;
29712;SDS011;16623;53.632;10.016;2023-02-28T12:57:38;6.22;;;2.30;;
29712;SDS011;16623;53.632;10.016;2023-02-28T13:00:16;11.45;;;3.55;;
29712;SDS011;16623;53.632;10.016;2023-02-28T13:02:53;4.45;;;2.10;;
29712;SDS011;16623;53.632;10.016;2023-02-28T13:06:24;4.10;;;2.13;;
29712;SDS011;16623;53.632;10.016;2023-02-28T13:11:38;5.57;;;2.47;;
29712;SDS011;16623;53.632;10.016;2023-02-28T13:14:28;4.18;;;2.38;;
29712;SDS011;16623;53.632;10.016;2023-02-28T13:19:37;4.35;;;2.50;;
29712;SDS011;16623;53.632;10.016;2023-02-28T13:25:00;7.30;;;2.40;;
29712;SDS011;16623;53.632;10.016;2023-02-28T13:27:34;6.63;;;2.42;;
29712;SDS011;16623;53.632;10.016;2023-02-28T13:30:39;9.70;;;2.33;;
29712;SDS011;16623;53.632;10.016;2023-02-28T13:33:21;3.97;;;2.03;;
29712;SDS011;16623;53.632;10.016;2023-02-28T13:36:22;4.22;;;2.30;;
29712;SDS011;16623;53.632;10.016;2023-02-28T13:38:51;4.57;;;2.40;;
29712;SDS011;16623;53.632;10.016;2023-02-28T13:51:48;5.28;;;2.20;;
29712;SDS011;16623;53.632;10.016;2023-02-28T13:54:26;6.82;;;2.40;;
29712;SDS011;16623;53.632;10.016;2023-02-28T13:57:30;7.65;;;2.50;;
29712;SDS011;16623;53.632;10.016;2023-02-28T14:02:52;4.07;;;1.98;;
29712;SDS011;16623;53.632;10.016;2023-02-28T14:05:30;6.45;;;2.33;;
29712;SDS011;16623;53.632;10.016;2023-02-28T14:07:59;4.60;;;2.13;;
29712;SDS011;16623;53.632;10.016;2023-02-28T14:10:31;7.07;;;2.22;;
29712;SDS011;16623;53.632;10.016;2023-02-28T14:13:12;4.43;;;2.53;;
29712;SDS011;16623;53.632;10.016;2023-02-28T14:16:00;5.13;;;2.72;;
29712;SDS011;16623;53.632;10.016;2023-02-28T14:21:00;6.57;;;2.58;;
29712;SDS011;16623;53.632;10.016;2023-02-28T14:26:58;4.60;;;2.58;;
29712;SDS011;16623;53.632;10.016;2023-02-28T14:29:51;9.63;;;3.20;;
29712;SDS011;16623;53.632;10.016;2023-02-28T14:32:33;3.47;;;2.22;;
29712;SDS011;16623;53.632;10.016;2023-02-28T14:35:29;5.13;;;2.78;;
29712;SDS011;16623;53.632;10.016;2023-02-28T14:38:02;3.75;;;1.98;;
29712;SDS011;16623;53.632;10.016;2023-02-28T14:40:33;5.55;;;2.22;;
29712;SDS011;16623;53.632;10.016;2023-02-28T14:43:04;5.72;;;2.10;;
29712;SDS011;16623;53.632;10.016;2023-02-28T14:45:32;4.82;;;2.00;;
29712;SDS011;16623;53.632;10.016;2023-02-28T14:47:59;3.08;;;2.38;;
29712;SDS011;16623;53.632;10.016;2023-02-28T14:50:29;5.53;;;3.35;;
29712;SDS011;16623;53.632;10.016;2023-02-28T14:52:56;4.20;;;2.10;;
29712;SDS011;16623;53.632;10.016;2023-02-28T14:55:24;4.05;;;2.13;;
29712;SDS011;16623;53.632;10.016;2023-02-28T14:58:00;6.90;;;2.40;;
29712;SDS011;16623;53.632;10.016;2023-02-28T15:00:35;2.92;;;1.92;;
29712;SDS011;16623;53.632;10.016;2023-02-28T15:03:21;4.15;;;1.98;;
29712;SDS011;16623;53.632;10.016;2023-02-28T15:08:19;3.67;;;1.95;;
29712;SDS011;16623;53.632;10.016;2023-02-28T15:10:52;2.08;;;1.73;;
29712;SDS011;16623;53.632;10.016;2023-02-28T15:13:36;6.30;;;2.13;;
29712;SDS011;16623;53.632;10.016;2023-02-28T15:16:10;4.75;;;2.50;;
29712;SDS011;16623;53.632;10.016;2023-02-28T15:18:47;2.87;;;2.57;;
29712;SDS011;16623;53.632;10.016;2023-02-28T15:21:22;3.53;;;2.00;;
29712;SDS011;16623;53.632;10.016;2023-02-28T15:24:02;2.85;;;1.92;;
29712;SDS011;16623;53.632;10.016;2023-02-28T15:26:33;6.25;;;2.15;;
29712;SDS011;16623;53.632;10.016;2023-02-28T15:29:13;3.50;;;2.38;;
29712;SDS011;16623;53.632;10.016;2023-02-28T15:31:45;5.43;;;2.40;;
29712;SDS011;16623;53.632;10.016;2023-02-28T15:34:19;3.03;;;1.65;;
29712;SDS011;16623;53.632;10.016;2023-02-28T15:36:53;5.05;;;2.08;;
29712;SDS011;16623;53.632;10.016;2023-02-28T15:39:19;3.78;;;2.38;;
29712;SDS011;16623;53.632;10.016;2023-02-28T15:41:47;3.78;;;2.58;;
29712;SDS011;16623;53.632;10.016;2023-02-28T15:47:02;5.05;;;2.13;;
29712;SDS011;16623;53.632;10.016;2023-02-28T15:49:40;4.07;;;2.17;;
29712;SDS011;16623;53.632;10.016;2023-02-28T15:55:24;3.85;;;2.58;;
29712;SDS011;16623;53.632;10.016;2023-02-28T15:57:53;5.88;;;2.28;;
29712;SDS011;16623;53.632;10.016;2023-02-28T16:00:23;5.32;;;2.35;;
29712;SDS011;16623;53.632;10.016;2023-02-28T16:02:50;7.35;;;2.55;;
29712;SDS011;16623;53.632;10.016;2023-02-28T16:05:18;3.63;;;2.38;;
29712;SDS011;16623;53.632;10.016;2023-02-28T16:07:59;5.63;;;3.58;;
29712;SDS011;16623;53.632;10.016;2023-02-28T16:10:27;4.70;;;2.50;;
29712;SDS011;16623;53.632;10.016;2023-02-28T16:12:55;5.20;;;2.70;;
29712;SDS011;16623;53.632;10.016;2023-02-28T16:15:27;6.60;;;2.67;;
29712;SDS011;16623;53.632;10.016;2023-02-28T16:17:54;5.15;;;2.55;;
29712;SDS011;16623;53.632;10.016;2023-02-28T16:20:22;5.13;;;2.50;;
29712;SDS011;16623;53.632;10.016;2023-02-28T16:22:48;6.97;;;2.45;;
29712;SDS011;16623;53.632;10.016;2023-02-28T16:25:14;6.68;;;2.60;;
29712;SDS011;16623;53.632;10.016;2023-02-28T16:27:42;2.60;;;2.13;;
29712;SDS011;16623;53.632;10.016;2023-02-28T16:30:15;7.40;;;2.83;;
29712;SDS011;16623;53.632;10.016;2023-02-28T16:32:45;3.65;;;2.33;;
29712;SDS011;16623;53.632;10.016;2023-02-28T16:35:11;5.50;;;2.67;;